Time;durP1;ratioP1;P1;durP2;ratioP2;P2;SDS_P1;SDS_P2;PMS_P1;PMS_P2;Temp;Humidity;BMP_temperature;BMP_pressure;BME280_temperature;BME280_humidity;BME280_pressure;Samples;Min_cycle;Max_cycle;Signal;HPM_P1;HPM_P2
2022/08/12 00:44:43;;;;;;;0.40;0.40;;;17.90;57.90;;;;;;5095167;28;20395;-69
2022/08/12 00:47:11;;;;;;;1.47;1.30;;;17.90;58.10;;;;;;5094838;28;20426;-69
2022/08/12 00:49:38;;;;;;;0.60;0.60;;;17.90;58.10;;;;;;5076328;28;20410;-68
2022/08/12 00:52:05;;;;;;;0.67;0.67;;;17.90;58.40;;;;;;5094505;28;20403;-69
2022/08/12 00:54:52;;;;;;;0.70;0.70;;;17.90;58.00;;;;;;5094748;28;20414;-67
2022/08/12 00:57:28;;;;;;;0.93;0.93;;;17.80;58.20;;;;;;5094218;28;20508;-69
2022/08/12 01:00:02;;;;;;;0.60;0.60;;;17.70;59.10;;;;;;5094208;28;20484;-66
2022/08/12 01:02:33;;;;;;;0.77;0.73;;;17.60;59.50;;;;;;5094288;28;20427;-69
2022/08/12 01:13:29;;;;;;;0.63;0.63;;;17.50;59.70;;;;;;5094909;28;20899;-68
2022/08/12 01:15:58;;;;;;;0.87;0.87;;;17.50;59.50;;;;;;5094134;28;20422;-69
2022/08/12 01:18:29;;;;;;;0.50;0.50;;;17.40;59.80;;;;;;5093740;28;20452;-69
2022/08/12 01:21:26;;;;;;;0.90;0.80;;;17.30;60.40;;;;;;5094230;28;20947;-66
2022/08/12 01:24:26;;;;;;;1.00;0.67;;;17.20;60.50;;;;;;5093222;28;20448;-67
2022/08/12 01:26:54;;;;;;;1.63;0.70;;;17.10;60.80;;;;;;5093887;28;20800;-68
2022/08/12 01:29:26;;;;;;;0.60;0.60;;;17.00;61.10;;;;;;5093785;28;20758;-69
2022/08/12 01:31:56;;;;;;;0.43;0.43;;;17.00;61.90;;;;;;5093966;28;20411;-69
2022/08/12 01:34:31;;;;;;;0.90;0.90;;;16.90;62.00;;;;;;5093976;28;20399;-67
2022/08/12 01:37:00;;;;;;;0.67;0.67;;;16.90;62.30;;;;;;5093572;28;20477;-68
2022/08/12 01:39:32;;;;;;;0.87;0.87;;;16.90;62.00;;;;;;5093618;28;20478;-69
2022/08/12 01:42:03;;;;;;;0.87;0.87;;;16.80;61.70;;;;;;5075630;28;20501;-69
2022/08/12 01:44:31;;;;;;;0.70;0.63;;;16.90;62.90;;;;;;5075821;28;20406;-70
2022/08/12 01:47:04;;;;;;;0.60;0.60;;;16.70;62.80;;;;;;5093721;28;20441;-69
2022/08/12 01:49:48;;;;;;;1.07;1.00;;;16.60;63.80;;;;;;5093483;28;20437;-69
2022/08/12 01:52:36;;;;;;;0.80;0.80;;;16.50;64.10;;;;;;5093713;28;20402;-69
2022/08/12 01:55:05;;;;;;;1.33;1.23;;;16.40;64.50;;;;;;5093416;28;20418;-66
2022/08/12 01:57:43;;;;;;;0.80;0.80;;;16.40;64.50;;;;;;5093527;28;20493;-67
2022/08/12 02:00:12;;;;;;;1.47;0.73;;;16.30;65.30;;;;;;5093797;28;20439;-69
2022/08/12 02:03:03;;;;;;;0.93;0.77;;;16.30;64.10;;;;;;5093368;28;20431;-68
2022/08/12 02:12:05;;;;;;;0.60;0.60;;;16.20;64.10;;;;;;5093651;28;20397;-69
2022/08/12 02:14:46;;;;;;;1.53;1.23;;;16.10;65.00;;;;;;5093659;28;20431;-69
2022/08/12 02:17:49;;;;;;;1.27;0.77;;;16.00;65.30;;;;;;5093302;28;20946;-69
2022/08/12 02:20:25;;;;;;;0.50;0.50;;;15.90;65.90;;;;;;5093583;28;20400;-68
2022/08/12 02:22:51;;;;;;;0.50;0.50;;;15.80;66.40;;;;;;5093562;28;20387;-68
2022/08/12 02:25:31;;;;;;;0.60;0.60;;;15.80;66.50;;;;;;5075169;28;20437;-68
2022/08/12 02:27:56;;;;;;;0.50;0.50;;;15.70;66.90;;;;;;5093313;28;20407;-67
2022/08/12 02:30:28;;;;;;;1.10;1.10;;;15.60;66.60;;;;;;5093407;28;20447;-67
2022/08/12 02:32:55;;;;;;;0.50;0.50;;;15.70;67.00;;;;;;5093546;28;20169;-68
2022/08/12 02:35:23;;;;;;;0.70;0.70;;;15.60;67.40;;;;;;5096885;28;20422;-68
2022/08/12 02:37:54;;;;;;;0.60;0.60;;;15.40;68.00;;;;;;5096910;28;20454;-69
2022/08/12 02:40:22;;;;;;;1.10;1.10;;;15.40;68.10;;;;;;5097221;28;20399;-69
2022/08/12 02:43:18;;;;;;;0.73;0.73;;;15.30;68.60;;;;;;5097290;28;20883;-67
2022/08/12 02:45:51;;;;;;;0.47;0.47;;;15.30;68.90;;;;;;5097080;28;20929;-68
2022/08/12 02:48:26;;;;;;;0.77;0.77;;;15.30;68.70;;;;;;5096841;28;20395;-67
2022/08/12 02:50:55;;;;;;;1.80;1.10;;;15.20;68.60;;;;;;5097188;28;20397;-69
2022/08/12 02:53:21;;;;;;;1.17;1.07;;;15.30;68.80;;;;;;5096995;28;20413;-68
2022/08/12 02:55:48;;;;;;;0.73;0.70;;;15.30;68.80;;;;;;5096963;28;20440;-69
2022/08/12 02:58:14;;;;;;;0.73;0.73;;;15.20;69.40;;;;;;5096473;28;21034;-67
2022/08/12 03:00:41;;;;;;;0.70;0.70;;;15.10;69.80;;;;;;5096709;28;20398;-68
2022/08/12 03:03:11;;;;;;;1.80;1.00;;;15.10;70.20;;;;;;5078416;28;20437;-67
2022/08/12 03:05:47;;;;;;;0.70;0.50;;;15.10;70.70;;;;;;5096836;28;20458;-66
2022/08/12 03:08:17;;;;;;;1.07;0.80;;;15.00;70.70;;;;;;5096538;28;20387;-67
2022/08/12 03:10:46;;;;;;;1.20;1.20;;;15.00;71.10;;;;;;5096743;28;20406;-66
2022/08/12 03:13:14;;;;;;;0.73;0.73;;;15.10;71.10;;;;;;5096516;28;20464;-69
2022/08/12 03:15:41;;;;;;;0.60;0.60;;;15.10;70.60;;;;;;5078274;28;20452;-68
2022/08/12 03:18:06;;;;;;;0.93;0.93;;;15.10;71.30;;;;;;5096138;28;20445;-68
2022/08/12 03:20:36;;;;;;;1.07;1.07;;;14.90;72.20;;;;;;5096449;28;20402;-69
2022/08/12 03:23:04;;;;;;;0.80;0.80;;;15.00;72.40;;;;;;5078369;28;20251;-67
2022/08/12 03:25:34;;;;;;;0.80;0.80;;;15.00;71.80;;;;;;5078041;28;20434;-67
2022/08/12 03:28:02;;;;;;;3.13;1.23;;;15.20;71.30;;;;;;5096407;28;20399;-68
2022/08/12 03:30:31;;;;;;;0.73;0.73;;;15.20;71.10;;;;;;5096147;28;20399;-67
2022/08/12 03:32:59;;;;;;;0.90;0.90;;;15.30;70.70;;;;;;5078083;28;20490;-66
2022/08/12 03:35:27;;;;;;;0.77;0.60;;;15.40;69.00;;;;;;5096159;28;20499;-68
2022/08/12 03:37:56;;;;;;;2.33;1.23;;;15.60;67.80;;;;;;5095736;28;20450;-66
2022/08/12 04:00:23;;;;;;;0.63;0.60;;;16.30;66.00;;;;;;5095186;28;20408;-66
2022/08/12 04:03:50;;;;;;;1.50;1.40;;;16.00;67.60;;;;;;5095587;28;20427;-69
2022/08/12 04:05:48;;;;;;;0.50;0.50;;;15.80;68.20;;;;;;5095265;28;20436;-66
2022/08/12 04:08:16;;;;;;;0.80;0.57;;;15.60;69.50;;;;;;5095239;28;20414;-69
2022/08/12 04:13:27;;;;;;;0.90;0.90;;;15.50;70.80;;;;;;5095635;28;20436;-66
2022/08/12 04:15:52;;;;;;;1.20;1.10;;;15.50;70.80;;;;;;5095400;28;20837;-67
2022/08/12 04:18:18;;;;;;;0.50;0.50;;;15.40;70.40;;;;;;5095207;28;20451;-67
2022/08/12 04:20:47;;;;;;;0.50;0.50;;;15.50;70.00;;;;;;5095302;28;20176;-69
2022/08/12 04:23:16;;;;;;;0.50;0.50;;;15.50;70.40;;;;;;5095257;28;20398;-67
2022/08/12 04:25:43;;;;;;;0.80;0.80;;;15.50;71.10;;;;;;5095235;28;20411;-67
2022/08/12 04:28:10;;;;;;;0.60;0.60;;;15.50;71.50;;;;;;5094868;28;20485;-68
2022/08/12 04:30:38;;;;;;;0.70;0.70;;;15.50;71.00;;;;;;5095217;28;20410;-67
2022/08/12 04:33:07;;;;;;;0.60;0.60;;;15.50;69.10;;;;;;5094827;28;20815;-69
2022/08/12 04:35:33;;;;;;;0.80;0.80;;;15.60;70.40;;;;;;5094681;28;20448;-67
2022/08/12 04:37:59;;;;;;;1.03;0.60;;;15.70;69.80;;;;;;5094546;28;20545;-67
2022/08/12 04:40:28;;;;;;;0.90;0.90;;;15.80;70.30;;;;;;5094603;28;20181;-68
2022/08/12 04:42:54;;;;;;;0.50;0.50;;;15.80;71.30;;;;;;5094522;28;20498;-69
2022/08/12 04:45:20;;;;;;;2.20;1.03;;;15.90;68.90;;;;;;5094564;28;21856;-69
2022/08/12 04:47:46;;;;;;;0.50;0.50;;;16.00;66.30;;;;;;5094359;28;20500;-69
2022/08/12 04:50:16;;;;;;;0.40;0.40;;;16.20;64.80;;;;;;5094563;28;20871;-68
2022/08/12 04:52:42;;;;;;;1.43;1.33;;;16.40;64.00;;;;;;5094538;28;20430;-68
2022/08/12 04:55:11;;;;;;;0.40;0.40;;;16.60;65.00;;;;;;5094297;28;20442;-67
2022/08/12 04:57:38;;;;;;;0.50;0.50;;;16.80;62.50;;;;;;5093799;28;20451;-67
2022/08/12 05:00:11;;;;;;;0.50;0.50;;;16.90;61.70;;;;;;5094317;28;20404;-67
2022/08/12 05:02:37;;;;;;;0.70;0.70;;;17.00;60.90;;;;;;5094343;28;20456;-67
2022/08/12 05:05:04;;;;;;;0.40;0.40;;;17.10;61.10;;;;;;5094270;28;20403;-69
2022/08/12 05:07:30;;;;;;;2.33;0.80;;;17.20;60.20;;;;;;5094117;28;20218;-69
2022/08/12 05:09:56;;;;;;;0.40;0.40;;;17.20;62.80;;;;;;5093912;28;20427;-68
2022/08/12 05:12:22;;;;;;;0.50;0.50;;;17.20;61.10;;;;;;5075889;28;20419;-69
2022/08/12 05:14:49;;;;;;;0.60;0.60;;;17.40;62.60;;;;;;5094096;28;20202;-65
2022/08/12 05:17:15;;;;;;;0.40;0.40;;;17.60;59.40;;;;;;5093854;28;20450;-68
2022/08/12 05:19:41;;;;;;;0.60;0.40;;;18.10;57.70;;;;;;5093723;28;20414;-68
2022/08/12 05:22:07;;;;;;;2.00;0.87;;;18.50;56.50;;;;;;5094048;28;20512;-69
2022/08/12 05:24:33;;;;;;;0.37;0.37;;;18.90;56.90;;;;;;5093904;28;20430;-68
2022/08/12 05:26:59;;;;;;;0.60;0.60;;;19.30;55.30;;;;;;5093877;28;20198;-69
2022/08/12 05:29:25;;;;;;;0.40;0.40;;;19.60;54.60;;;;;;5093979;28;20173;-69
2022/08/12 05:31:54;;;;;;;0.40;0.40;;;19.70;53.30;;;;;;5094078;28;20892;-67
2022/08/12 05:34:20;;;;;;;0.53;0.53;;;19.90;52.60;;;;;;5094030;28;20412;-67
2022/08/12 05:36:46;;;;;;;0.40;0.40;;;20.00;52.70;;;;;;5093702;28;20504;-67
2022/08/12 05:39:11;;;;;;;0.47;0.37;;;20.10;51.90;;;;;;5075567;28;20657;-68
2022/08/12 05:41:38;;;;;;;0.50;0.50;;;20.20;51.60;;;;;;5093862;28;20259;-69
2022/08/12 05:44:06;;;;;;;0.50;0.50;;;20.50;51.20;;;;;;5093865;28;20195;-68
2022/08/12 05:46:34;;;;;;;0.50;0.50;;;21.00;50.70;;;;;;5093859;28;20798;-67
2022/08/12 05:49:00;;;;;;;0.53;0.53;;;21.90;49.10;;;;;;5093411;28;20420;-69
2022/08/12 05:51:29;;;;;;;0.80;0.80;;;22.30;48.20;;;;;;5093452;28;20734;-69
2022/08/12 05:53:56;;;;;;;1.63;0.60;;;22.60;47.30;;;;;;5093494;28;20404;-68
2022/08/12 05:56:27;;;;;;;0.30;0.30;;;22.70;47.50;;;;;;5093261;28;20981;-68
2022/08/12 05:58:54;;;;;;;1.73;0.73;;;22.90;47.80;;;;;;5093300;28;20773;-69
2022/08/12 06:01:22;;;;;;;0.40;0.40;;;22.70;47.20;;;;;;5093538;28;20410;-69
2022/08/12 06:03:49;;;;;;;0.40;0.40;;;22.80;48.30;;;;;;5093173;28;20484;-69
2022/08/12 06:06:16;;;;;;;0.70;0.70;;;23.10;47.10;;;;;;5093491;28;20949;-67
2022/08/12 06:08:47;;;;;;;0.40;0.40;;;23.10;46.80;;;;;;5094039;28;20411;-67
2022/08/12 06:11:17;;;;;;;0.47;0.47;;;23.00;47.00;;;;;;5079308;28;20418;-69
2022/08/12 06:13:44;;;;;;;0.50;0.50;;;22.80;47.10;;;;;;5097628;28;20419;-69
2022/08/12 06:16:13;;;;;;;0.50;0.50;;;22.70;48.50;;;;;;5097287;28;20430;-69
2022/08/12 06:18:39;;;;;;;0.40;0.40;;;22.60;47.00;;;;;;5097411;28;20403;-68
2022/08/12 06:21:10;;;;;;;0.60;0.60;;;22.30;47.20;;;;;;5097359;28;20905;-69
2022/08/12 06:23:36;;;;;;;0.60;0.50;;;22.20;48.10;;;;;;5097551;28;20895;-69
2022/08/12 06:26:03;;;;;;;0.60;0.60;;;22.20;48.60;;;;;;5097294;28;20427;-68
2022/08/12 06:28:29;;;;;;;0.50;0.50;;;22.00;48.00;;;;;;5096924;28;20406;-68
2022/08/12 06:30:55;;;;;;;0.87;0.77;;;22.00;48.60;;;;;;5097032;28;20768;-68
2022/08/12 06:33:21;;;;;;;0.30;0.30;;;22.00;48.90;;;;;;5097152;28;20410;-67
2022/08/12 06:35:48;;;;;;;0.60;0.60;;;21.90;47.70;;;;;;5097235;28;20441;-69
2022/08/12 06:38:17;;;;;;;0.40;0.40;;;21.90;48.30;;;;;;5096829;28;20659;-67
2022/08/12 06:43:29;;;;;;;1.53;0.70;;;22.30;48.00;;;;;;5097246;28;20447;-67
2022/08/12 06:45:56;;;;;;;0.53;0.53;;;22.70;48.80;;;;;;5097002;28;20789;-68
2022/08/12 06:48:26;;;;;;;0.63;0.63;;;23.10;48.20;;;;;;5096573;28;20410;-68
2022/08/12 06:50:53;;;;;;;0.80;0.80;;;23.50;46.80;;;;;;5096921;28;20400;-67
2022/08/12 06:53:19;;;;;;;0.50;0.50;;;23.40;46.30;;;;;;5096945;28;20402;-69
2022/08/12 06:55:45;;;;;;;0.60;0.60;;;23.50;46.90;;;;;;5096728;28;20921;-68
2022/08/12 06:58:13;;;;;;;0.40;0.40;;;23.80;46.00;;;;;;5096285;28;20537;-69
2022/08/12 07:00:42;;;;;;;0.70;0.60;;;23.90;45.20;;;;;;5096644;28;20172;-69
2022/08/12 07:03:08;;;;;;;0.50;0.50;;;24.00;45.60;;;;;;5078186;28;20426;-69
2022/08/12 07:05:34;;;;;;;0.40;0.40;;;24.30;45.00;;;;;;5096451;28;20415;-68
2022/08/12 07:08:05;;;;;;;0.50;0.50;;;24.40;44.40;;;;;;5096244;28;20856;-68
2022/08/12 07:10:32;;;;;;;0.53;0.50;;;23.80;44.60;;;;;;5096536;28;20205;-69
2022/08/12 07:13:00;;;;;;;0.50;0.50;;;23.30;45.70;;;;;;5096402;28;20403;-68
2022/08/12 07:15:27;;;;;;;1.20;0.60;;;23.00;46.00;;;;;;5096350;28;20476;-68
2022/08/12 07:18:06;;;;;;;0.63;0.63;;;23.10;46.50;;;;;;5095994;28;20457;-68
2022/08/12 07:20:34;;;;;;;0.60;0.60;;;23.40;45.60;;;;;;5096271;28;20868;-68
2022/08/12 07:23:02;;;;;;;0.47;0.47;;;24.10;44.70;;;;;;5096413;28;20814;-67
2022/08/12 07:25:31;;;;;;;0.40;0.40;;;24.70;44.10;;;;;;5096128;28;20780;-68
2022/08/12 07:28:00;;;;;;;0.40;0.40;;;25.80;42.70;;;;;;5096099;28;20749;-68
2022/08/12 07:30:29;;;;;;;0.87;0.50;;;26.90;40.50;;;;;;5096316;28;20407;-70
2022/08/12 07:32:55;;;;;;;0.93;0.90;;;27.90;39.90;;;;;;5096250;28;20398;-69
2022/08/12 07:35:21;;;;;;;0.47;0.47;;;28.50;38.60;;;;;;5096143;28;20406;-69
2022/08/12 07:37:49;;;;;;;0.50;0.50;;;29.60;38.20;;;;;;5095839;28;20461;-67
2022/08/12 07:40:17;;;;;;;0.63;0.63;;;30.10;35.40;;;;;;5096305;28;20430;-68
2022/08/12 07:42:43;;;;;;;0.50;0.50;;;30.40;34.40;;;;;;5095954;28;20414;-70
2022/08/12 07:45:11;;;;;;;0.93;0.70;;;29.90;34.60;;;;;;5095843;28;20410;-68
2022/08/12 07:47:38;;;;;;;0.80;0.60;;;30.00;34.80;;;;;;5095579;28;20407;-68
2022/08/12 07:50:08;;;;;;;0.60;0.60;;;29.40;34.80;;;;;;5096117;28;20399;-68
2022/08/12 07:52:40;;;;;;;0.60;0.60;;;29.20;34.50;;;;;;5095952;28;20407;-67
2022/08/12 07:55:07;;;;;;;0.40;0.40;;;29.70;34.70;;;;;;5095667;28;20498;-68
2022/08/12 07:57:34;;;;;;;0.50;0.50;;;30.60;34.20;;;;;;5095493;28;20533;-69
2022/08/12 08:00:02;;;;;;;0.60;0.50;;;30.30;33.90;;;;;;5095709;28;20460;-69
2022/08/12 08:02:28;;;;;;;0.67;0.67;;;30.60;33.90;;;;;;5095506;28;20430;-70
2022/08/12 08:04:56;;;;;;;0.80;0.67;;;31.80;32.60;;;;;;5095668;28;20395;-68
2022/08/12 08:07:24;;;;;;;0.50;0.50;;;31.70;31.40;;;;;;5095251;28;20738;-68
2022/08/12 08:09:52;;;;;;;1.20;0.77;;;31.50;31.60;;;;;;5095217;28;20770;-69
2022/08/12 08:15:03;;;;;;;0.50;0.50;;;30.80;32.40;;;;;;5095135;28;20387;-69
2022/08/12 08:17:29;;;;;;;0.70;0.70;;;31.20;33.10;;;;;;5095411;28;20460;-68
2022/08/12 08:19:54;;;;;;;0.50;0.50;;;31.10;31.40;;;;;;5094993;28;20486;-68
2022/08/12 08:22:23;;;;;;;0.60;0.53;;;31.40;31.80;;;;;;5095193;28;20256;-68
2022/08/12 08:24:55;;;;;;;0.60;0.60;;;31.70;31.80;;;;;;5095277;28;20252;-69
2022/08/12 08:27:21;;;;;;;0.80;0.80;;;32.10;30.60;;;;;;5094812;28;20430;-68
2022/08/12 08:29:47;;;;;;;0.70;0.70;;;31.10;30.70;;;;;;5094832;28;20763;-69
2022/08/12 08:32:13;;;;;;;0.70;0.70;;;31.50;32.20;;;;;;5094318;28;20660;-68
2022/08/12 08:34:39;;;;;;;0.60;0.60;;;32.00;30.80;;;;;;5094857;28;20512;-69
2022/08/12 08:37:06;;;;;;;2.63;0.67;;;32.10;30.80;;;;;;5094660;28;20197;-68
2022/08/12 08:39:33;;;;;;;0.40;0.40;;;32.80;30.00;;;;;;5094731;28;20399;-68
2022/08/12 08:44:43;;;;;;;0.63;0.60;;;33.50;29.70;;;;;;5094749;28;20398;-69
2022/08/12 08:47:11;;;;;;;0.70;0.70;;;33.00;29.40;;;;;;5076277;28;20466;-70
2022/08/12 08:49:38;;;;;;;0.60;0.53;;;32.90;30.60;;;;;;5094485;28;20399;-68
2022/08/12 08:52:05;;;;;;;1.10;1.00;;;33.70;30.60;;;;;;5094647;28;20419;-69
2022/08/12 08:54:32;;;;;;;0.50;0.50;;;35.00;28.80;;;;;;5094586;28;20814;-70
2022/08/12 08:57:00;;;;;;;0.60;0.60;;;35.90;27.70;;;;;;5094158;28;20463;-70
2022/08/12 08:59:26;;;;;;;0.53;0.53;;;35.40;27.70;;;;;;5094227;28;20422;-69
2022/08/12 09:01:53;;;;;;;0.50;0.50;;;35.50;27.40;;;;;;5094335;28;20399;-68
2022/08/12 09:04:19;;;;;;;0.60;0.60;;;35.40;27.70;;;;;;5094653;28;20413;-68
2022/08/12 09:06:46;;;;;;;1.07;0.67;;;35.30;28.20;;;;;;5094310;28;20423;-67
2022/08/12 09:09:13;;;;;;;0.50;0.50;;;35.70;27.50;;;;;;5093889;28;20414;-70
2022/08/12 09:14:23;;;;;;;0.40;0.40;;;35.80;27.10;;;;;;5094257;28;20486;-70
2022/08/12 09:16:49;;;;;;;0.67;0.67;;;35.90;27.20;;;;;;5093972;28;20548;-68
2022/08/12 09:19:17;;;;;;;0.60;0.57;;;36.20;27.50;;;;;;5093892;28;20214;-70
2022/08/12 09:21:45;;;;;;;0.50;0.50;;;36.40;27.20;;;;;;5094170;28;20534;-70
2022/08/12 09:24:10;;;;;;;0.53;0.53;;;36.80;26.90;;;;;;5091871;28;20407;-69
2022/08/12 09:26:37;;;;;;;1.00;0.53;;;36.70;26.80;;;;;;5094256;28;20507;-69
2022/08/12 09:29:03;;;;;;;0.73;0.60;;;35.90;27.00;;;;;;5094275;28;20176;-69
2022/08/12 09:31:29;;;;;;;0.50;0.50;;;36.10;27.60;;;;;;5091528;28;20417;-69
2022/08/12 09:33:55;;;;;;;0.50;0.50;;;35.90;26.60;;;;;;5094382;28;20880;-68
2022/08/12 09:36:22;;;;;;;0.60;0.60;;;35.60;27.30;;;;;;5093550;28;20193;-68
2022/08/12 09:38:48;;;;;;;0.50;0.50;;;35.20;27.80;;;;;;5093699;28;20395;-69
2022/08/12 09:41:14;;;;;;;0.80;0.50;;;35.40;27.10;;;;;;5093752;28;20810;-69
2022/08/12 09:46:27;;;;;;;0.50;0.50;;;35.20;26.60;;;;;;5093838;28;20420;-68
2022/08/12 09:48:52;;;;;;;0.80;0.50;;;35.20;26.70;;;;;;5093460;28;20967;-68
2022/08/12 09:51:18;;;;;;;0.60;0.60;;;35.20;26.60;;;;;;5093467;28;20180;-69
2022/08/12 09:53:46;;;;;;;0.90;0.70;;;35.20;26.60;;;;;;5093637;28;20171;-69
2022/08/12 09:56:16;;;;;;;1.00;0.50;;;34.80;26.90;;;;;;5093416;28;20426;-68
2022/08/12 09:58:45;;;;;;;0.53;0.53;;;34.80;27.30;;;;;;5093211;28;20414;-68
2022/08/12 10:01:10;;;;;;;0.50;0.40;;;34.40;27.70;;;;;;5093610;28;20434;-68
2022/08/12 10:03:36;;;;;;;1.53;0.57;;;33.50;27.00;;;;;;5093381;28;20455;-68
2022/08/12 10:06:05;;;;;;;0.60;0.60;;;33.10;27.40;;;;;;5075272;28;20242;-68
2022/08/12 10:08:32;;;;;;;0.50;0.50;;;33.20;28.60;;;;;;5091248;28;20556;-69
2022/08/12 10:13:47;;;;;;;1.10;1.00;;;33.30;27.90;;;;;;5093302;28;20798;-68
2022/08/12 10:16:27;;;;;;;0.47;0.47;;;33.40;28.40;;;;;;5090814;28;20927;-68
2022/08/12 10:19:01;;;;;;;0.57;0.57;;;33.70;28.20;;;;;;5093721;28;20398;-69
2022/08/12 10:21:33;;;;;;;0.50;0.50;;;34.20;28.40;;;;;;5092482;28;20395;-68
2022/08/12 10:23:59;;;;;;;0.50;0.50;;;33.60;28.40;;;;;;5092161;28;20951;-69
2022/08/12 10:31:54;;;;;;;0.50;0.40;;;33.30;27.70;;;;;;5092972;28;20445;-68
2022/08/12 10:34:22;;;;;;;0.53;0.53;;;32.40;27.70;;;;;;5092818;28;20884;-69
2022/08/12 10:36:57;;;;;;;0.90;0.90;;;32.30;27.60;;;;;;5090769;28;20813;-69
2022/08/12 10:39:32;;;;;;;0.60;0.53;;;32.70;28.20;;;;;;5092876;28;20407;-69
2022/08/12 10:44:52;;;;;;;0.40;0.40;;;32.60;27.90;;;;;;5045836;28;20494;-69
2022/08/12 10:47:20;;;;;;;0.53;0.40;;;32.30;28.00;;;;;;5093159;28;20466;-69
2022/08/12 10:49:47;;;;;;;0.77;0.77;;;32.20;28.30;;;;;;5093100;28;20179;-69
2022/08/12 10:52:13;;;;;;;0.50;0.43;;;32.10;29.20;;;;;;5093371;28;20407;-68
2022/08/12 10:54:40;;;;;;;0.63;0.50;;;32.00;28.90;;;;;;5094110;28;20426;-69
2022/08/12 10:57:07;;;;;;;0.70;0.50;;;31.90;28.60;;;;;;5096731;28;20450;-68
2022/08/12 10:59:32;;;;;;;0.60;0.60;;;31.70;28.80;;;;;;5096565;28;20490;-68
2022/08/12 11:01:59;;;;;;;0.50;0.50;;;31.50;29.70;;;;;;5096689;28;20827;-68
2022/08/12 11:04:28;;;;;;;0.60;0.50;;;31.10;29.60;;;;;;5096970;28;20516;-67
2022/08/12 11:06:54;;;;;;;0.60;0.60;;;30.80;29.30;;;;;;5096534;28;20776;-69
2022/08/12 11:09:30;;;;;;;0.70;0.70;;;30.50;29.80;;;;;;5096898;28;20420;-68
2022/08/12 11:11:58;;;;;;;0.80;0.50;;;30.20;29.80;;;;;;5094586;28;20406;-69
2022/08/12 11:14:33;;;;;;;0.90;0.90;;;29.90;30.30;;;;;;5096349;28;20411;-67
2022/08/12 11:17:08;;;;;;;0.60;0.60;;;29.90;31.00;;;;;;5096598;28;20453;-68
2022/08/12 11:19:35;;;;;;;0.90;0.60;;;29.60;30.00;;;;;;5096266;28;20487;-68
2022/08/12 11:22:03;;;;;;;0.73;0.60;;;29.50;30.20;;;;;;5096459;28;20399;-68
2022/08/12 11:24:29;;;;;;;0.80;0.80;;;29.60;30.90;;;;;;5096392;28;20436;-68
2022/08/12 11:26:55;;;;;;;0.47;0.47;;;29.60;30.50;;;;;;5096198;28;20741;-69
2022/08/12 11:29:24;;;;;;;1.13;0.57;;;29.40;32.30;;;;;;5095989;28;20398;-69
2022/08/12 11:31:51;;;;;;;0.50;0.50;;;29.50;31.50;;;;;;5077968;28;20414;-68
2022/08/12 11:34:17;;;;;;;0.60;0.60;;;29.60;31.00;;;;;;5096221;28;20409;-68
2022/08/12 11:36:50;;;;;;;0.80;0.80;;;29.20;30.60;;;;;;5095894;28;20835;-68
2022/08/12 11:39:16;;;;;;;0.60;0.60;;;29.20;31.10;;;;;;5095776;28;20422;-68
2022/08/12 11:41:42;;;;;;;0.40;0.40;;;29.30;31.70;;;;;;5095997;28;20401;-68
2022/08/12 11:44:07;;;;;;;0.83;0.63;;;29.30;30.60;;;;;;5095960;28;20494;-68
2022/08/12 11:46:37;;;;;;;0.43;0.43;;;29.40;31.50;;;;;;5095775;28;20200;-68
2022/08/12 11:49:04;;;;;;;0.50;0.50;;;29.30;31.00;;;;;;5095654;28;20180;-68
2022/08/12 11:51:30;;;;;;;0.40;0.40;;;29.20;31.60;;;;;;5095726;28;20403;-68
2022/08/12 11:53:56;;;;;;;0.37;0.37;;;29.10;30.20;;;;;;5095667;28;20399;-69
2022/08/12 11:56:21;;;;;;;0.43;0.43;;;29.00;30.30;;;;;;5077373;28;20853;-68
2022/08/12 11:58:48;;;;;;;0.77;0.77;;;28.40;30.70;;;;;;5095541;28;20161;-68
2022/08/12 12:01:14;;;;;;;0.40;0.40;;;28.20;30.60;;;;;;5095644;28;20172;-68
2022/08/12 12:03:40;;;;;;;0.40;0.40;;;28.20;30.30;;;;;;5095442;28;20422;-68
2022/08/12 12:06:06;;;;;;;0.57;0.57;;;28.10;32.30;;;;;;5094438;28;20427;-67
2022/08/12 12:08:31;;;;;;;0.67;0.67;;;28.30;30.00;;;;;;5095207;28;20447;-68
2022/08/12 12:10:57;;;;;;;0.53;0.53;;;28.20;30.20;;;;;;5095634;28;20169;-69
2022/08/12 12:13:23;;;;;;;0.70;0.53;;;28.20;30.00;;;;;;5095461;28;20290;-69
2022/08/12 12:15:49;;;;;;;0.40;0.40;;;28.30;29.40;;;;;;5095309;28;20920;-69
2022/08/12 12:18:23;;;;;;;0.40;0.40;;;28.20;30.60;;;;;;5094939;28;20660;-67
2022/08/12 12:20:50;;;;;;;0.40;0.40;;;28.40;29.70;;;;;;5095193;28;20412;-68
2022/08/12 12:23:16;;;;;;;0.47;0.47;;;28.40;28.30;;;;;;5095128;28;20370;-68
2022/08/12 12:25:41;;;;;;;0.53;0.53;;;28.30;27.80;;;;;;5094952;28;20419;-67
2022/08/12 12:28:07;;;;;;;1.57;0.60;;;28.20;28.10;;;;;;5094785;28;20892;-68
2022/08/12 12:30:36;;;;;;;0.50;0.50;;;28.10;28.50;;;;;;5095307;28;20169;-68
2022/08/12 12:33:03;;;;;;;0.50;0.40;;;28.00;27.60;;;;;;5095107;28;20171;-69
2022/08/12 12:35:28;;;;;;;0.60;0.50;;;27.90;27.90;;;;;;5094942;28;20423;-68
2022/08/12 12:38:09;;;;;;;0.50;0.50;;;28.00;28.60;;;;;;5094790;28;20450;-68
2022/08/12 12:40:36;;;;;;;1.20;1.10;;;27.90;29.40;;;;;;5094942;28;20166;-68
2022/08/12 12:43:03;;;;;;;0.60;0.60;;;27.70;29.70;;;;;;5095010;28;20406;-68
2022/08/12 12:45:33;;;;;;;0.70;0.70;;;27.50;30.30;;;;;;5094781;28;20418;-68
2022/08/12 12:48:02;;;;;;;0.43;0.43;;;27.40;30.10;;;;;;5094496;28;20387;-68
2022/08/12 12:50:33;;;;;;;0.87;0.73;;;27.60;29.80;;;;;;5094681;28;20399;-68
2022/08/12 12:52:59;;;;;;;0.60;0.60;;;27.50;29.80;;;;;;5094659;28;20403;-67
2022/08/12 12:55:27;;;;;;;0.50;0.50;;;27.40;29.70;;;;;;5094662;28;21077;-69
2022/08/12 12:57:53;;;;;;;0.60;0.40;;;27.50;30.20;;;;;;5094186;28;20669;-68
2022/08/12 13:00:20;;;;;;;0.53;0.53;;;27.70;30.00;;;;;;5094574;28;20430;-68
2022/08/12 13:02:54;;;;;;;0.50;0.50;;;27.80;28.70;;;;;;5094288;28;20518;-68
2022/08/12 13:05:37;;;;;;;0.43;0.43;;;27.80;28.70;;;;;;5094384;28;20395;-68
2022/08/12 13:08:24;;;;;;;0.40;0.40;;;27.80;29.00;;;;;;5094056;28;20409;-67
2022/08/12 13:10:51;;;;;;;0.80;0.60;;;27.80;29.10;;;;;;5094446;28;20475;-69
2022/08/12 13:13:18;;;;;;;0.30;0.30;;;27.90;28.70;;;;;;5094209;28;20389;-68
2022/08/12 13:15:47;;;;;;;0.40;0.40;;;27.70;28.70;;;;;;5094188;28;20430;-68
2022/08/12 13:18:14;;;;;;;0.50;0.40;;;27.70;29.00;;;;;;5075455;28;20774;-68
2022/08/12 13:20:42;;;;;;;0.57;0.50;;;27.70;29.10;;;;;;5094265;28;20373;-68
2022/08/12 13:23:08;;;;;;;0.40;0.40;;;27.70;27.40;;;;;;5094103;28;20399;-69
2022/08/12 13:25:34;;;;;;;0.60;0.60;;;27.30;27.60;;;;;;5093874;28;20425;-67
2022/08/12 13:27:59;;;;;;;0.40;0.40;;;27.30;28.40;;;;;;5093768;28;20378;-68
2022/08/12 13:30:25;;;;;;;0.60;0.50;;;27.40;27.80;;;;;;5093976;28;20214;-68
2022/08/12 13:32:57;;;;;;;0.50;0.50;;;27.50;28.50;;;;;;5093779;28;20176;-68
2022/08/12 13:35:34;;;;;;;0.40;0.40;;;27.40;27.80;;;;;;5093899;28;20168;-68
2022/08/12 13:38:00;;;;;;;0.50;0.50;;;27.20;27.50;;;;;;5093467;28;20453;-68
2022/08/12 13:40:29;;;;;;;0.40;0.40;;;27.10;29.00;;;;;;5093721;28;20399;-68
2022/08/12 13:43:00;;;;;;;0.70;0.60;;;26.90;29.30;;;;;;5093530;28;20381;-68
2022/08/12 13:45:27;;;;;;;0.50;0.50;;;26.80;30.00;;;;;;5093605;28;20422;-68
2022/08/12 13:48:00;;;;;;;0.60;0.60;;;26.90;29.80;;;;;;5093515;28;20381;-68
2022/08/12 13:50:35;;;;;;;1.60;0.77;;;26.90;29.90;;;;;;5093604;28;20390;-68
2022/08/12 13:53:13;;;;;;;0.50;0.50;;;26.90;30.00;;;;;;5093701;28;20747;-68
2022/08/12 13:55:45;;;;;;;0.40;0.40;;;27.00;29.60;;;;;;5093651;28;20400;-68
2022/08/12 13:58:15;;;;;;;0.70;0.70;;;26.90;29.70;;;;;;5090582;28;20425;-67
2022/08/12 14:00:50;;;;;;;0.53;0.43;;;26.90;29.70;;;;;;5092245;28;20379;-68
2022/08/12 14:03:20;;;;;;;0.70;0.70;;;26.90;30.30;;;;;;5091711;28;20479;-68
2022/08/12 14:05:46;;;;;;;1.10;0.70;;;27.00;30.80;;;;;;5090817;28;20404;-68
2022/08/12 14:08:14;;;;;;;0.40;0.40;;;27.00;29.50;;;;;;5092071;28;20384;-69
2022/08/12 14:10:50;;;;;;;0.57;0.50;;;27.00;29.20;;;;;;5091329;28;20380;-68
2022/08/12 14:13:17;;;;;;;0.50;0.50;;;26.90;29.40;;;;;;5091953;28;20385;-67
2022/08/12 14:15:45;;;;;;;0.40;0.40;;;26.90;29.80;;;;;;5093231;28;20796;-68
2022/08/12 14:18:16;;;;;;;0.40;0.40;;;26.90;30.00;;;;;;5093078;28;20983;-69
2022/08/12 14:20:44;;;;;;;0.50;0.50;;;26.70;29.70;;;;;;5093386;28;20724;-69
2022/08/12 14:23:10;;;;;;;0.70;0.60;;;26.60;29.60;;;;;;5093413;28;20395;-68
2022/08/12 14:25:38;;;;;;;0.40;0.40;;;26.60;29.50;;;;;;5093416;28;20477;-68
2022/08/12 14:28:10;;;;;;;0.40;0.40;;;26.20;29.50;;;;;;5074932;28;20406;-68
2022/08/12 14:30:45;;;;;;;2.20;2.10;;;26.30;29.20;;;;;;5095675;28;20383;-67
2022/08/12 14:33:16;;;;;;;0.43;0.43;;;26.20;29.60;;;;;;5097487;28;20438;-68
2022/08/12 14:35:43;;;;;;;0.60;0.60;;;26.20;30.60;;;;;;5097346;28;20398;-68
2022/08/12 14:38:22;;;;;;;0.40;0.40;;;26.20;31.30;;;;;;5097070;28;20421;-67
2022/08/12 14:40:51;;;;;;;0.40;0.40;;;26.30;31.00;;;;;;5097120;28;20376;-68
2022/08/12 14:43:19;;;;;;;0.50;0.47;;;26.30;30.80;;;;;;5097101;28;20455;-68